• Join FlightAware (Why Join?)
  • Login
  • US Flag 
06:19AM EDT


 

Airport Tracker/Info


-or-


 

Live Flight TrackerFlight Track Log ✈ N789EX ✈ 11-May-2014 ✈ KBFI - KMWH

Flight Track Log - Related Links

Times and Time Zones

All times are in EDT time to prevent confusion due to time zone crossing. See the N789EX flight status page for this flight to view local times or setup timezone preferences in your user account.

Time Position Orientation Groundspeed Altitude Reporting Facility
EDT Latitude Longitude Course Direction KTS MPH feet Rate Location/Type
01:26PM 47.5076 -122.2840 151° Southeast 185 213 900  Level FlightAware ADS-B
01:26PM 47.4987 -122.2760 148° Southeast 193 222 1,400 2,220 Climbing FlightAware ADS-B
01:26PM 47.4865 -122.2650 147° Southeast 213 245 1,900 1,920 Climbing FlightAware ADS-B
01:26PM 47.4755 -122.2550 149° Southeast 228 262 2,300 2,100 Climbing FlightAware ADS-B
01:26PM 47.4607 -122.2410 149° Southeast 248 285 2,900 2,520 Climbing FlightAware ADS-B
01:27PM 47.4497 -122.2320 149° Southeast 254 292 3,400 2,880 Climbing FlightAware ADS-B
01:27PM 47.4339 -122.2170 148° Southeast 264 304 4,200 3,060 Climbing FlightAware ADS-B
01:27PM 47.4177 -122.2030 149° Southeast 270 311 5,000 3,420 Climbing FlightAware ADS-B
01:27PM 47.4138 -122.2000 151° Southeast 271 312 5,300 3,420 Climbing FlightAware ADS-B
01:27PM 47.4104 -122.1980 157° South 273 314 5,400 3,000 Climbing FlightAware ADS-B
01:27PM 47.4057 -122.1960 166° South 275 316 5,600 3,420 Climbing FlightAware ADS-B
01:27PM 47.4020 -122.1950 173° South 276 318 5,800 3,420 Climbing FlightAware ADS-B
01:27PM 47.3976 -122.1950 180° South 277 319 6,000 4,260 Climbing FlightAware ADS-B
01:27PM 47.3927 -122.1950 189° South 278 320 6,300 3,720 Climbing FlightAware ADS-B
01:28PM 47.3880 -122.1970 198° South 278 320 6,500 4,260 Climbing FlightAware ADS-B
01:28PM 47.3836 -122.2000 207° Southwest 278 320 6,800 4,260 Climbing FlightAware ADS-B
01:28PM 47.3801 -122.2040 213° Southwest 279 321 7,000 3,420 Climbing FlightAware ADS-B
01:28PM 47.3763 -122.2080 222° Southwest 279 321 7,200 3,420 Climbing FlightAware ADS-B
01:28PM 47.3731 -122.2130 228° Southwest 280 322 7,400 3,000 Climbing FlightAware ADS-B
01:28PM 47.3702 -122.2190 236° Southwest 280 322 7,600 3,000 Climbing FlightAware ADS-B
01:28PM 47.3679 -122.2250 244° Southwest 282 325 7,800 3,420 Climbing FlightAware ADS-B
01:28PM 47.3661 -122.2330 253° West 283 326 8,000 3,420 Climbing FlightAware ADS-B
01:28PM 47.3652 -122.2390 259° West 284 327 8,200 3,000 Climbing FlightAware ADS-B
01:28PM 47.3648 -122.2480 267° West 285 328 8,400 3,000 Climbing FlightAware ADS-B
01:28PM 47.3651 -122.2540 276° West 285 328 8,600 2,520 Climbing FlightAware ADS-B
01:28PM 47.3658 -122.2600 282° West 286 329 8,700 2,520 Climbing FlightAware ADS-B
01:28PM 47.3675 -122.2680 290° West 286 329 8,900 2,220 Climbing FlightAware ADS-B
01:28PM 47.3698 -122.2750 296° West 285 328 9,000 1,680 Climbing FlightAware ADS-B
01:28PM 47.3719 -122.2800 300° West 285 328 9,100 2,220 Climbing FlightAware ADS-B
01:28PM 47.3757 -122.2890 304° West 287 330 9,300 1,140 Climbing FlightAware ADS-B
01:29PM 47.3877 -122.3140 306° West 289 333 9,500 540 Climbing FlightAware ADS-B
01:29PM 47.4010 -122.3410 306° West 290 334 9,600 180 Climbing FlightAware ADS-B
01:29PM 47.4127 -122.3650 305° West 290 334 9,600  Level FlightAware ADS-B
01:29PM 47.4230 -122.3861 306° West 289 333 9,600  Level FlightAware ADS-B (KPAE)
01:30PM 47.4245 -122.3890 306° West 289 333 9,600  Level FlightAware ADS-B
01:30PM 47.4325 -122.4057 306° West 289 333 9,600  Level FlightAware ADS-B (CYVR)
01:30PM 47.4363 -122.4140 306° West 289 333 9,600  Level FlightAware ADS-B
01:30PM 47.4486 -122.4390 306° West 289 333 9,600  Level FlightAware ADS-B
01:30PM 47.4615 -122.4650 306° West 288 331 9,600  Level FlightAware ADS-B
01:31PM 47.4603 -122.4629 306° West 290 334 9,600  Level FlightAware ADS-B (CYVR)
01:31PM 47.4852 -122.5140 306° West 289 333 9,600  Level FlightAware ADS-B
01:31PM 47.4982 -122.5410 306° West 289 333 9,600  Level FlightAware ADS-B
01:31PM 47.4995 -122.5434 306° West 290 334 9,600  Level FlightAware ADS-B (CYWH)
01:31PM 47.5106 -122.5660 306° West 287 330 9,600  Level FlightAware ADS-B
01:31PM 47.5090 -122.5628 306° West 289 333 9,600  Level FlightAware ADS-B (CYWH)
01:32PM 47.5239 -122.5930 306° West 289 333 9,600  Level FlightAware ADS-B
01:32PM 47.5320 -122.6090 306° West 303 349 9,600  Level FlightAware ADS-B (CYWH)
01:32PM 47.5365 -122.6180 306° West 305 351 9,600  Level FlightAware ADS-B
01:32PM 47.5450 -122.6351 306° West 310 357 9,600  Level FlightAware ADS-B
01:32PM 47.5494 -122.6440 307° West 311 358 9,600  Level FlightAware ADS-B
01:32PM 47.5497 -122.6447 307° West 311 358 9,600  Level FlightAware ADS-B (CYVR)
01:32PM 47.5625 -122.6700 306° West 312 359 9,600  Level FlightAware ADS-B
01:32PM 47.5583 -122.6617 306° West 311 358 9,600  Level FlightAware ADS-B (CYVR)
01:33PM 47.5762 -122.6980 306° West 312 359 9,600  Level FlightAware ADS-B
01:33PM 47.5779 -122.7012 306° West 312 359 9,600  Level FlightAware ADS-B
01:33PM 47.5896 -122.7250 306° West 312 359 9,600  Level FlightAware ADS-B
01:33PM 47.5896 -122.7246 306° West 312 359 9,600  Level FlightAware ADS-B (CYWH)
01:33PM 47.6024 -122.7500 306° West 315 362 9,600  Level FlightAware ADS-B
01:33PM 47.6054 -122.7563 307° West 317 365 9,600  Level FlightAware ADS-B
01:33PM 47.6161 -122.7780 306° West 322 371 9,600  Level FlightAware ADS-B
01:33PM 47.6172 -122.7799 306° West 323 372 9,600  Level FlightAware ADS-B (CYWH)
01:34PM 47.6298 -122.8050 306° West 323 372 9,600  Level FlightAware ADS-B
01:34PM 47.6361 -122.8180 305° West 322 371 9,600  Level FlightAware ADS-B (CYWH)
01:34PM 47.6426 -122.8330 302° West 322 371 9,600  Level FlightAware ADS-B
01:34PM 47.6509 -122.8537 300° West 323 372 9,600  Level FlightAware ADS-B (CYWH)
01:34PM 47.6539 -122.8620 299° West 322 371 9,600  Level FlightAware ADS-B
01:34PM 47.6614 -122.8824 298° West 321 369 9,600  Level FlightAware ADS-B
01:34PM 47.6656 -122.8940 298° West 320 368 9,600  Level FlightAware ADS-B
01:35PM 47.6725 -122.9134 298° West 320 368 9,600  Level FlightAware ADS-B
01:35PM 47.6761 -122.9230 298° West 320 368 9,600  Level FlightAware ADS-B
01:35PM 47.6867 -122.9531 298° West 321 369 9,600  Level FlightAware ADS-B (CYWH)
01:35PM 47.6976 -122.9830 298° West 323 372 9,600  Level FlightAware ADS-B
01:35PM 47.6999 -122.9901 298° West 323 372 9,600  Level FlightAware ADS-B (CYWH)
01:36PM 47.7082 -123.0130 298° West 323 372 9,600  Level FlightAware ADS-B
01:36PM 47.7111 -123.0215 298° West 324 373 9,600  Level FlightAware ADS-B
01:36PM 47.7137 -123.0280 299° West 324 373 9,600  Level FlightAware ADS-B
01:36PM 47.7168 -123.0360 302° West 323 372 9,600  Level FlightAware ADS-B
01:36PM 47.7211 -123.0450 309° West 322 371 9,600  Level FlightAware ADS-B
01:36PM 47.7227 -123.0472 312° West 322 371 9,600  Level FlightAware ADS-B (CYWH)
01:36PM 47.7241 -123.0490 314° West 321 369 9,600  Level FlightAware ADS-B
01:36PM 47.7298 -123.0560 323° Northwest 320 368 9,600  Level FlightAware ADS-B
01:36PM 47.7346 -123.0610 329° Northwest 319 367 9,600  Level FlightAware ADS-B
01:36PM 47.7340 -123.0604 332° Northwest 319 367 9,600  Level FlightAware ADS-B (CYWH)
01:36PM 47.7396 -123.0640 336° Northwest 318 366 9,600  Level FlightAware ADS-B
01:36PM 47.7489 -123.0690 344° North 318 366 9,600  Level FlightAware ADS-B
01:36PM 47.7614 -123.0730 347° North 318 366 9,600  Level FlightAware ADS-B
01:36PM 47.7720 -123.0771 347° North 318 366 9,600  Level FlightAware ADS-B (CYWH)
01:37PM 47.7827 -123.0810 347° North 318 366 9,600  Level FlightAware ADS-B
01:37PM 47.8052 -123.0886 347° North 318 366 9,600  Level FlightAware ADS-B (CYWH)
01:37PM 47.8081 -123.0900 347° North 318 366 9,600  Level FlightAware ADS-B
01:37PM 47.8304 -123.0970 347° North 318 366 9,600  Level FlightAware ADS-B
01:37PM 47.8521 -123.1050 346° North 307 353 9,600  Level FlightAware ADS-B
01:37PM 47.8610 -123.1084 346° North 299 344 9,600  Level FlightAware ADS-B (CYWH)
01:38PM 47.8727 -123.1130 346° North 291 335 9,600  Level FlightAware ADS-B
01:38PM 47.8848 -123.1171 346° North 285 328 9,600  Level FlightAware ADS-B
01:38PM 47.8922 -123.1200 346° North 283 326 9,600  Level FlightAware ADS-B
01:38PM 47.9105 -123.1264 346° North 282 325 9,600  Level FlightAware ADS-B
01:38PM 47.9112 -123.1270 346° North 282 325 9,600  Level FlightAware ADS-B
01:38PM 47.9307 -123.1340 346° North 282 325 9,600  Level FlightAware ADS-B
01:38PM 47.9330 -123.1346 346° North 282 325 9,600  Level FlightAware ADS-B
01:39PM 47.9500 -123.1410 346° North 282 325 9,600  Level FlightAware ADS-B
01:39PM 47.9548 -123.1424 347° North 283 326 9,600  Level FlightAware ADS-B
01:39PM 47.9693 -123.1480 347° North 283 326 9,600  Level FlightAware ADS-B
01:39PM 47.9739 -123.1493 347° North 283 326 9,600  Level FlightAware ADS-B
01:39PM 47.9886 -123.1550 347° North 283 326 9,600  Level FlightAware ADS-B
01:39PM 47.9970 -123.1575 347° North 283 326 9,600  Level FlightAware ADS-B (CYVR)
01:39PM 48.0074 -123.1610 347° North 283 326 9,600 -600 Level FlightAware ADS-B
01:40PM 48.0204 -123.1658 347° North 280 322 9,400 -1,200 Descending FlightAware ADS-B
01:40PM 48.0274 -123.1680 347° North 280 322 9,300 -2,160 Descending FlightAware ADS-B
01:40PM 48.0463 -123.1750 346° North 281 323 8,800 -2,340 Descending FlightAware ADS-B
01:40PM 48.0481 -123.1758 346° North 282 325 8,600 -2,820 Descending FlightAware ADS-B (CYVR)
01:40PM 48.0654 -123.1820 346° North 284 327 8,100 -2,400 Descending FlightAware ADS-B
01:40PM 48.0690 -123.1835 346° North 283 326 8,000 -1,740 Descending FlightAware ADS-B
01:40PM 48.0824 -123.1880 346° North 279 321 7,700 -1,620 Descending FlightAware ADS-B
01:40PM 48.0866 -123.1900 346° North 278 320 7,600 -2,040 Descending FlightAware ADS-B (CYVR)
01:41PM 48.1013 -123.1950 346° North 275 316 7,200 -2,160 Descending FlightAware ADS-B
01:41PM 48.1057 -123.1970 346° North 274 315 7,000 -2,220 Descending FlightAware ADS-B (CYVR)
01:41PM 48.1278 -123.2050 347° North 272 313 6,400 -1,920 Descending FlightAware ADS-B (CYWH)
01:41PM 48.1521 -123.2137 347° North 272 313 5,900 -1,440 Descending FlightAware ADS-B (CYWH)
01:42PM 48.1706 -123.2203 346° North 269 310 5,600 -600 Descending FlightAware ADS-B
01:42PM 48.1863 -123.2259 347° North 257 296 5,600  Level FlightAware ADS-B (CYWH)
01:42PM 48.2073 -123.2334 347° North 240 276 5,600  Level FlightAware ADS-B
01:42PM 48.2230 -123.2393 347° North 218 251 5,600  Level FlightAware ADS-B (CYVR)
01:43PM 48.2290 -123.2414 347° North 214 246 5,600  Level FlightAware ADS-B
01:43PM 48.2459 -123.2476 346° North 195 224 5,600  Level FlightAware ADS-B
01:43PM 48.2498 -123.2489 349° North 185 213 5,600  Level FlightAware ADS-B
01:43PM 48.2552 -123.2498 359° North 182 209 5,600  Level FlightAware ADS-B
01:43PM 48.2578 -123.2493 North 181 208 5,600  Level FlightAware ADS-B (CYWH)
01:43PM 48.2604 -123.2483 24° Northeast 179 206 5,600  Level FlightAware ADS-B (CYVR)
01:43PM 48.2639 -123.2454 41° Northeast 178 205 5,600  Level FlightAware ADS-B (CYWH)
01:43PM 48.2668 -123.2405 51° Northeast 178 205 5,600  Level FlightAware ADS-B (CYVR)
01:43PM 48.2690 -123.2326 79° East 178 205 5,600  Level FlightAware ADS-B (CYWH)
01:43PM 48.2693 -123.2294 88° East 179 206 5,600  Level FlightAware ADS-B (CYVR)
01:44PM 48.2687 -123.2215 101° East 180 207 5,600  Level FlightAware ADS-B (CYWH)
01:44PM 48.2662 -123.2071 106° East 183 211 5,600  Level FlightAware ADS-B
01:44PM 48.2625 -123.1870 1000° North 280 322 5,600  Level FlightAware ADS-B
01:44PM 48.2618 -123.1840 106° East 180 207 5,600  Level FlightAware ADS-B
01:44PM 48.2597 -123.1729 106° East 180 207 5,600  Level FlightAware ADS-B (CYWH)
01:44PM 48.2582 -123.1650 106° East 180 207 5,600  Level FlightAware ADS-B
01:44PM 48.2562 -123.1550 107° East 180 207 5,600  Level FlightAware ADS-B
01:44PM 48.2556 -123.1523 109° East 179 206 5,600  Level FlightAware ADS-B
01:44PM 48.2554 -123.1510 110° East 180 207 5,600  Level FlightAware ADS-B
01:45PM 48.2521 -123.1416 123° Southeast 180 207 5,600  Level FlightAware ADS-B
01:45PM 48.2511 -123.1390 124° Southeast 181 208 5,600  Level FlightAware ADS-B
01:45PM 48.2506 -123.1385 131° Southeast 182 209 5,600  Level FlightAware ADS-B
01:45PM 48.2493 -123.1360 131° Southeast 181 208 5,600  Level FlightAware ADS-B
01:45PM 48.2472 -123.1330 137° Southeast 182 209 5,600  Level FlightAware ADS-B
01:45PM 48.2449 -123.1310 146° Southeast 182 209 5,600  Level FlightAware ADS-B
01:45PM 48.2460 -123.1317 151° Southeast 183 211 5,600  Level FlightAware ADS-B (CYWH)
01:45PM 48.2426 -123.1290 153° Southeast 183 211 5,600  Level FlightAware ADS-B
01:45PM 48.2402 -123.1270 160° South 184 212 5,600  Level FlightAware ADS-B
01:45PM 48.2376 -123.1260 167° South 185 213 5,600  Level FlightAware ADS-B
01:45PM 48.2391 -123.1269 169° South 185 213 5,600  Level FlightAware ADS-B (CYWH)
01:45PM 48.2342 -123.1260 176° South 184 212 5,600  Level FlightAware ADS-B
01:45PM 48.2310 -123.1260 183° South 183 211 5,600  Level FlightAware ADS-B
01:45PM 48.2277 -123.1270 192° South 181 208 5,600  Level FlightAware ADS-B
01:45PM 48.2247 -123.1290 201° Southwest 178 205 5,600 -780 Level FlightAware ADS-B
01:45PM 48.2222 -123.1310 210° Southwest 176 203 5,500 -1,020 Descending FlightAware ADS-B
01:45PM 48.2274 -123.1273 217° Southwest 174 200 5,500  Level FlightAware ADS-B (CYWH)
01:45PM 48.2198 -123.1330 215° Southwest 175 201 5,500  Level FlightAware ADS-B
01:45PM 48.2189 -123.1347 224° Southwest 173 199 5,500  Level FlightAware ADS-B
01:45PM 48.2174 -123.1370 227° Southwest 173 199 5,500  Level FlightAware ADS-B
01:45PM 48.2160 -123.1400 233° Southwest 173 199 5,500  Level FlightAware ADS-B
01:46PM 48.2152 -123.1423 241° Southwest 173 199 5,500  Level FlightAware ADS-B (CYWH)
01:46PM 48.2145 -123.1440 242° Southwest 173 199 5,500  Level FlightAware ADS-B
01:46PM 48.2132 -123.1480 247° West 172 198 5,500  Level FlightAware ADS-B
01:46PM 48.2124 -123.1520 249° West 171 197 5,500  Level FlightAware ADS-B
01:46PM 48.2074 -123.1760 255° West 173 199 5,500  Level FlightAware ADS-B (CYWH)
01:46PM 48.2050 -123.1919 259° West 164 189 5,500  Level FlightAware ADS-B (CYWH)
01:47PM 48.2015 -123.2188 259° West 161 185 5,500 -180 Level FlightAware ADS-B
01:47PM 48.1996 -123.2350 261° West 161 185 5,400 -360 Descending FlightAware ADS-B
01:47PM 48.1973 -123.2573 262° West 163 188 5,300 -240 Descending FlightAware ADS-B
01:47PM 48.1964 -123.2743 268° West 163 188 5,300  Level FlightAware ADS-B (CYWH)
01:48PM 48.1960 -123.2965 269° West 164 189 5,300 180 Level FlightAware ADS-B
01:48PM 48.1957 -123.3129 269° West 165 190 5,400 360 Climbing FlightAware ADS-B
01:48PM 48.1956 -123.3311 270° West 163 188 5,500 540 Climbing FlightAware ADS-B (CYVR)
01:49PM 48.1957 -123.3465 271° West 161 185 5,700 540 Climbing FlightAware ADS-B
01:49PM 48.1959 -123.3654 271° West 160 184 5,800 360 Climbing FlightAware ADS-B (CYVR)
01:49PM 48.1961 -123.3789 271° West 160 184 5,900 540 Climbing FlightAware ADS-B (CYVR)
01:49PM 48.1966 -123.4022 272° West 161 185 6,100 540 Climbing FlightAware ADS-B
01:50PM 48.1969 -123.4201 271° West 161 185 6,200 300 Climbing FlightAware ADS-B
01:50PM 48.1972 -123.4395 271° West 162 186 6,300 300 Climbing FlightAware ADS-B (CYVR)
01:50PM 48.1973 -123.4594 271° West 162 186 6,400 480 Climbing FlightAware ADS-B
01:51PM 48.1976 -123.4780 271° West 162 186 6,600 540 Climbing FlightAware ADS-B
01:51PM 48.1978 -123.4921 271° West 162 186 6,700 360 Climbing FlightAware ADS-B (CYVR)
01:51PM 48.1984 -123.5152 273° West 162 186 6,800 360 Climbing FlightAware ADS-B
01:51PM 48.1989 -123.5324 273° West 163 188 6,900 360 Climbing FlightAware ADS-B
01:52PM 48.1992 -123.5428 274° West 163 188 7,000 360 Climbing FlightAware ADS-B (CYVR)
01:52PM 48.2002 -123.5682 274° West 164 189 7,100 360 Climbing FlightAware ADS-B
01:52PM 48.2011 -123.5887 274° West 165 190 7,200 360 Climbing FlightAware ADS-B
01:52PM 48.2017 -123.6038 273° West 165 190 7,300 300 Climbing FlightAware ADS-B
01:53PM 48.2024 -123.6258 272° West 166 191 7,400 300 Climbing FlightAware ADS-B
01:53PM 48.2029 -123.6470 272° West 166 191 7,500 360 Climbing FlightAware ADS-B (CYWH)
01:53PM 48.2034 -123.6654 272° West 168 193 7,600 360 Climbing FlightAware ADS-B
01:54PM 48.2039 -123.6835 272° West 168 193 7,700 360 Climbing FlightAware ADS-B
01:54PM 48.2044 -123.7003 273° West 168 193 7,800 360 Climbing FlightAware ADS-B
01:54PM 48.2053 -123.7218 274° West 167 192 7,900 360 Climbing FlightAware ADS-B (CYVR)
01:54PM 48.2061 -123.7408 274° West 168 193 8,000 360 Climbing FlightAware ADS-B (CYWH)
01:55PM 48.2070 -123.7600 274° West 170 196 8,100 300 Climbing FlightAware ADS-B
01:55PM 48.2082 -123.7843 274° West 169 194 8,200 240 Climbing FlightAware ADS-B
01:55PM 48.2094 -123.8074 274° West 168 193 8,300 300 Climbing FlightAware ADS-B
01:56PM 48.2102 -123.8260 273° West 168 193 8,400 360 Climbing FlightAware ADS-B
01:56PM 48.2108 -123.8414 273° West 169 194 8,500 360 Climbing FlightAware ADS-B
01:56PM 48.2113 -123.8599 273° West 169 194 8,600 180 Climbing FlightAware ADS-B
01:56PM 48.2118 -123.8786 272° West 170 196 8,600 180 Level FlightAware ADS-B
01:57PM 48.2122 -123.8962 272° West 170 196 8,700 300 Climbing FlightAware ADS-B
01:57PM 48.2128 -123.9182 272° West 170 196 8,800 300 Climbing FlightAware ADS-B (CYVR)
01:57PM 48.2131 -123.9321 272° West 170 196 8,900 300 Climbing FlightAware ADS-B (CYVR)
01:57PM 48.2137 -123.9619 271° West 169 194 9,000 300 Climbing FlightAware ADS-B (CYVR)
01:58PM 48.2139 -123.9771 271° West 169 194 9,100 300 Climbing FlightAware ADS-B (CYVR)
01:58PM 48.2143 -124.0016 271° West 169 194 9,200 180 Climbing FlightAware ADS-B
01:58PM 48.2144 -124.0181 271° West 171 197 9,200 180 Level FlightAware ADS-B
01:59PM 48.2147 -124.0385 272° West 172 198 9,300  Climbing FlightAware ADS-B
01:59PM 48.2149 -124.0479 272° West 183 211 9,200 -960 Descending FlightAware ADS-B (CYVR)
01:59PM 48.2155 -124.0660 276° West 195 224 8,900 -2,040 Descending FlightAware ADS-B (CYVR)
01:59PM 48.2165 -124.0811 281° West 199 229 8,600 -2,220 Descending FlightAware ADS-B
01:59PM 48.2161 -124.0771 307° West 199 229 8,200 -1,920 Descending FlightAware ADS-B (CYWH)
01:59PM 48.2229 -124.0985 323° Northwest 199 229 8,100 -1,380 Descending FlightAware ADS-B
01:59PM 48.2265 -124.1021 334° Northwest 198 228 8,000 -1,800 Descending FlightAware ADS-B
02:00PM 48.2320 -124.1049 352° North 195 224 7,800 -2,220 Descending FlightAware ADS-B
02:00PM 48.2374 -124.1051 North 192 221 7,600 -1,500 Descending FlightAware ADS-B
02:00PM 48.2478 -124.0964 51° Northeast 181 208 7,300 -1,500 Descending FlightAware ADS-B
02:00PM 48.2510 -124.0859 78° East 179 206 7,000 -1,740 Descending FlightAware ADS-B
02:00PM 48.2514 -124.0787 90° East 179 206 6,900 -1,680 Descending FlightAware ADS-B
02:00PM 48.2510 -124.0723 97° East 178 205 6,700 -1,620 Descending FlightAware ADS-B
02:00PM 48.2498 -124.0619 106° East 176 203 6,500 -1,320 Descending FlightAware ADS-B
02:00PM 48.2487 -124.0565 105° East 176 203 6,400 -1,440 Descending FlightAware ADS-B
02:01PM 48.2450 -124.0363 106° East 176 203 6,000 -1,200 Descending FlightAware ADS-B
02:01PM 48.2416 -124.0192 106° East 171 197 5,800 -720 Descending FlightAware ADS-B
02:01PM 48.2381 -123.9997 105° East 156 180 5,600 -540 Descending FlightAware ADS-B
02:02PM 48.2353 -123.9837 105° East 149 171 5,500 -180 Descending FlightAware ADS-B
02:02PM 48.2318 -123.9637 105° East 150 173 5,500  Level FlightAware ADS-B
02:02PM 48.2339 -123.9759 105° East 148 170 5,500  Level FlightAware ADS-B (CYVR)
02:02PM 48.2283 -123.9429 104° East 148 170 5,500  Level FlightAware ADS-B
02:03PM 48.2262 -123.9300 103° East 147 169 5,500  Level FlightAware ADS-B (CYWH)
02:03PM 48.2234 -123.9122 103° East 148 170 5,500 180 Level FlightAware ADS-B (CYVR)
02:03PM 48.2203 -123.8928 103° East 149 171 5,600 600 Climbing FlightAware ADS-B
02:03PM 48.2180 -123.8773 103° East 148 170 5,800 540 Climbing FlightAware ADS-B
02:04PM 48.2154 -123.8603 104° East 150 173 5,900 360 Climbing FlightAware ADS-B
02:04PM 48.2138 -123.8506 104° East 151 174 6,000 360 Climbing FlightAware ADS-B (CYWH)
02:04PM 48.2096 -123.8270 106° East 153 176 6,100 360 Climbing FlightAware ADS-B
02:04PM 48.2068 -123.8117 106° East 153 176 6,200 360 Climbing FlightAware ADS-B
02:05PM 48.2040 -123.7968 106° East 153 176 6,300 480 Climbing FlightAware ADS-B (CYVR)
02:05PM 48.2003 -123.7765 105° East 152 175 6,500 480 Climbing FlightAware ADS-B
02:05PM 48.1978 -123.7629 105° East 152 175 6,600 360 Climbing FlightAware ADS-B
02:05PM 48.1952 -123.7487 105° East 152 175 6,700 360 Climbing FlightAware ADS-B (CYVR)
02:06PM 48.1920 -123.7304 104° East 152 175 6,800 480 Climbing FlightAware ADS-B
02:06PM 48.1911 -123.7245 105° East 152 175 6,900 420 Climbing FlightAware ADS-B
02:06PM 48.1874 -123.7035 105° East 151 174 7,000 480 Climbing FlightAware ADS-B (CYWH)
02:06PM 48.1844 -123.6867 105° East 152 175 7,200 480 Climbing FlightAware ADS-B
02:07PM 48.1831 -123.6783 104° East 152 175 7,200 240 Level FlightAware ADS-B (CYVR)
02:07PM 48.1805 -123.6620 103° East 152 175 7,300 420 Climbing FlightAware ADS-B (CYVR)
02:07PM 48.1763 -123.6360 105° East 152 175 7,500 420 Climbing FlightAware ADS-B (CYVR)
02:08PM 48.1734 -123.6193 105° East 152 175 7,600 360 Climbing FlightAware ADS-B
02:08PM 48.1731 -123.6179 105° East 152 175 7,700 360 Climbing FlightAware ADS-B
02:08PM 48.1677 -123.5875 105° East 153 176 7,800 360 Climbing FlightAware ADS-B (CYVR)
02:08PM 48.1650 -123.5718 104° East 153 176 7,900 360 Climbing FlightAware ADS-B (CYWH)
02:09PM 48.1616 -123.5524 104° East 154 177 8,000 360 Climbing FlightAware ADS-B
02:09PM 48.1592 -123.5371 104° East 154 177 8,100 360 Climbing FlightAware ADS-B
02:09PM 48.1578 -123.5284 104° East 155 178 8,200 300 Climbing FlightAware ADS-B
02:10PM 48.1529 -123.4987 104° East 155 178 8,300 240 Climbing FlightAware ADS-B (CYVR)
02:10PM 48.1511 -123.4881 104° East 156 180 8,400 300 Climbing FlightAware ADS-B
02:10PM 48.1464 -123.4598 104° East 157 181 8,500 360 Climbing FlightAware ADS-B
02:10PM 48.1441 -123.4455 104° East 156 180 8,600 360 Climbing FlightAware ADS-B (CYVR)
02:11PM 48.1416 -123.4299 103° East 157 181 8,700 360 Climbing FlightAware ADS-B
02:11PM 48.1386 -123.4103 103° East 157 181 8,800 120 Climbing FlightAware ADS-B
02:11PM 48.1360 -123.3940 103° East 157 181 8,800 120 Level FlightAware ADS-B (CYWH)
02:12PM 48.1327 -123.3729 103° East 158 182 8,900 420 Climbing FlightAware ADS-B (CYWH)
02:12PM 48.1295 -123.3520 103° East 158 182 9,100 420 Climbing FlightAware ADS-B (CYWH)
02:12PM 48.1261 -123.3309 104° East 158 182 9,200 120 Climbing FlightAware ADS-B (CYWH)
02:12PM 48.1242 -123.3197 104° East 158 182 9,200 300 Level FlightAware ADS-B (CYVR)
02:12PM 48.1226 -123.3100 104° East 158 182 9,300 960 Climbing FlightAware ADS-B
02:13PM 48.1216 -123.3050 104° East 159 183 9,300  Level FlightAware ADS-B
02:13PM 48.1206 -123.2985 104° East 158 182 9,300  Level FlightAware ADS-B
02:13PM 48.1198 -123.2940 104° East 159 183 9,300 360 Level FlightAware ADS-B
02:13PM 48.1171 -123.2770 104° East 159 183 9,400 360 Climbing FlightAware ADS-B
02:13PM 48.1175 -123.2798 104° East 160 184 9,400  Level FlightAware ADS-B (CYWH)
02:13PM 48.1144 -123.2610 104° East 160 184 9,400  Level FlightAware ADS-B
02:13PM 48.1140 -123.2586 104° East 160 184 9,400 420 Level FlightAware ADS-B
02:13PM 48.1121 -123.2470 104° East 161 185 9,500 360 Climbing FlightAware ADS-B
02:14PM 48.1118 -123.2453 104° East 163 188 9,500  Level FlightAware ADS-B (CYWH)
02:14PM 48.1110 -123.2400 103° East 163 188 9,500 -720 Level FlightAware ADS-B
02:14PM 48.1100 -123.2340 101° East 167 192 9,400 -480 Descending FlightAware ADS-B
02:14PM 48.1093 -123.2260 96° East 172 198 9,400 -600 Level FlightAware ADS-B
02:14PM 48.1091 -123.2208 91° East 175 201 9,300 -1,500 Descending FlightAware ADS-B (CYWH)
02:14PM 48.1091 -123.2210 91° East 175 201 9,300  Level FlightAware ADS-B
02:14PM 48.1093 -123.2160 85° East 179 206 9,300  Level FlightAware ADS-B
02:14PM 48.1098 -123.2110 78° East 182 209 9,300  Level FlightAware ADS-B
02:14PM 48.1095 -123.2132 75° East 182 209 9,300  Level FlightAware ADS-B (CYVR)
02:14PM 48.1105 -123.2070 73° East 183 211 9,300  Level FlightAware ADS-B
02:14PM 48.1118 -123.2030 66° East 184 212 9,300 -1,020 Level FlightAware ADS-B
02:14PM 48.1131 -123.1993 60° Northeast 186 214 9,200 -1,500 Descending FlightAware ADS-B
02:14PM 48.1136 -123.1980 58° Northeast 187 215 9,200  Level FlightAware ADS-B
02:14PM 48.1154 -123.1947 49° Northeast 191 220 9,200  Level FlightAware ADS-B
02:14PM 48.1160 -123.1940 49° Northeast 191 220 9,200 -1,500 Level FlightAware ADS-B
02:14PM 48.1178 -123.1910 41° Northeast 193 222 9,100 -1,500 Descending FlightAware ADS-B
02:14PM 48.1185 -123.1905 38° Northeast 193 222 9,100  Level FlightAware ADS-B
02:14PM 48.1208 -123.1884 29° Northeast 196 226 9,100  Level FlightAware ADS-B (CYWH)
02:14PM 48.1243 -123.1870 17° North 199 229 9,100  Level FlightAware ADS-B
02:14PM 48.1234 -123.1869 North 200 230 9,100  Level FlightAware ADS-B
02:15PM 48.1281 -123.1860 North 200 230 9,100  Level FlightAware ADS-B
02:15PM 48.1270 -123.1859 357° North 202 232 9,100  Level FlightAware ADS-B (CYWH)
02:15PM 48.1317 -123.1860 354° North 203 234 9,100  Level FlightAware ADS-B
02:15PM 48.1344 -123.1870 346° North 204 235 9,100  Level FlightAware ADS-B
02:15PM 48.1366 -123.1882 338° Northwest 207 238 9,100  Level FlightAware ADS-B
02:15PM 48.1380 -123.1890 336° Northwest 208 239 9,100 -1,500 Level FlightAware ADS-B
02:15PM 48.1398 -123.1908 327° Northwest 210 242 9,000 -2,040 Descending FlightAware ADS-B (CYVR)
02:15PM 48.1411 -123.1920 325° Northwest 211 243 9,000  Level FlightAware ADS-B
02:15PM 48.1433 -123.1950 317° Northwest 214 246 9,000  Level FlightAware ADS-B
02:15PM 48.1433 -123.1951 311° West 215 247 9,000  Level FlightAware ADS-B
02:15PM 48.1458 -123.2000 306° West 217 250 9,000  Level FlightAware ADS-B
02:15PM 48.1460 -123.2002 303° West 218 251 9,000  Level FlightAware ADS-B (CYWH)
02:15PM 48.1480 -123.2060 296° West 220 253 9,000  Level FlightAware ADS-B
02:15PM 48.1493 -123.2120 287° West 222 255 9,000 -900 Level FlightAware ADS-B
02:15PM 48.1500 -123.2170 282° West 225 259 8,900 -1,500 Descending FlightAware ADS-B
02:15PM 48.1502 -123.2184 280° West 225 259 8,900  Level FlightAware ADS-B
02:15PM 48.1510 -123.2260 278° West 224 258 8,900  Level FlightAware ADS-B
02:15PM 48.1512 -123.2285 277° West 222 255 8,900 -1,620 Level FlightAware ADS-B (CYWH)
02:15PM 48.1526 -123.2490 275° West 220 253 8,500 -1,920 Descending FlightAware ADS-B
02:16PM 48.1528 -123.2533 275° West 222 255 8,300 -1,860 Descending FlightAware ADS-B
02:16PM 48.1542 -123.2791 274° West 220 253 7,800 -1,620 Descending FlightAware ADS-B
02:16PM 48.1547 -123.2910 273° West 218 251 7,700 -2,520 Descending FlightAware ADS-B (CYVR)
02:16PM 48.1556 -123.3179 273° West 216 249 6,800 -2,160 Descending FlightAware ADS-B (CYWH)
02:17PM 48.1567 -123.3470 273° West 197 227 6,300 -1,860 Descending FlightAware ADS-B (CYWH)
02:17PM 48.1577 -123.3704 275° West 194 223 5,700 -1,200 Descending FlightAware ADS-B
02:17PM 48.1594 -123.3976 275° West 188 216 5,600 -180 Descending FlightAware ADS-B
02:17PM 48.1608 -123.4186 276° West 183 211 5,600  Level FlightAware ADS-B
02:18PM 48.1620 -123.4372 275° West 170 196 5,600 -240 Level FlightAware ADS-B
02:18PM 48.1633 -123.4573 277° West 164 189 5,500 -180 Descending FlightAware ADS-B (CYVR)
02:18PM 48.1649 -123.4758 279° West 161 185 5,500  Level FlightAware ADS-B (CYVR)
02:19PM 48.1672 -123.4960 280° West 161 185 5,500 180 Level FlightAware ADS-B
02:19PM 48.1677 -123.5004 280° West 163 188 5,600 180 Climbing FlightAware ADS-B (CYVR)
02:19PM 48.1706 -123.5295 277° West 164 189 5,600  Level FlightAware ADS-B
02:19PM 48.1719 -123.5470 276° West 166 191 5,600  Level FlightAware ADS-B (CYWH)
02:20PM 48.1731 -123.5637 276° West 166 191 5,600  Level FlightAware ADS-B (CYVR)
02:20PM 48.1745 -123.5832 276° West 165 190 5,600  Level FlightAware ADS-B (CYWH)
02:20PM 48.1759 -123.6031 276° West 163 188 5,600  Level FlightAware ADS-B
02:20PM 48.1773 -123.6224 276° West 162 186 5,600  Level FlightAware ADS-B
02:21PM 48.1788 -123.6432 276° West 161 185 5,600  Level FlightAware ADS-B
02:21PM 48.1808 -123.6692 276° West 161 185 5,600  Level FlightAware ADS-B (CYWH)
02:21PM 48.1824 -123.6904 277° West 163 188 5,600  Level FlightAware ADS-B
02:22PM 48.1837 -123.7070 277° West 165 190 5,600  Level FlightAware ADS-B (CYWH)
02:22PM 48.1850 -123.7225 277° West 167 192 5,600 180 Level FlightAware ADS-B (CYVR)
02:22PM 48.1866 -123.7419 278° West 176 203 5,700 180 Climbing FlightAware ADS-B (CYWH)
02:22PM 48.1882 -123.7600 277° West 187 215 5,700 -180 Level FlightAware ADS-B
02:23PM 48.1903 -123.7873 277° West 207 238 5,600 -180 Descending FlightAware ADS-B (CYVR)
02:23PM 48.1920 -123.8093 276° West 222 255 5,600 -240 Level FlightAware ADS-B
02:23PM 48.1936 -123.8312 276° West 238 274 5,500  Descending FlightAware ADS-B
02:24PM 48.1957 -123.8628 276° West 252 290 5,600  Climbing FlightAware ADS-B (CYVR)
02:24PM 48.1976 -123.8914 276° West 268 308 5,500 -720 Descending FlightAware ADS-B
02:24PM 48.1998 -123.9247 276° West 281 323 5,200 -900 Descending FlightAware ADS-B
02:24PM 48.2019 -123.9549 276° West 280 322 5,000 -960 Descending FlightAware ADS-B
02:25PM 48.2041 -123.9847 277° West 275 316 4,700 -720 Descending FlightAware ADS-B
02:25PM 48.2069 -124.0213 277° West 278 320 4,600 480 Descending FlightAware ADS-B
02:27PM 48.2232 -124.2322 277° West 280 322 5,800 660 Climbing FlightAware ADS-B
02:27PM 48.2258 -124.2507 288° West 280 322 6,000 1,080 Climbing FlightAware ADS-B
02:27PM 48.2296 -124.2626 302° West 279 321 6,100 1,500 Climbing FlightAware ADS-B
02:27PM 48.2334 -124.2703 310° West 279 321 6,300 1,800 Climbing FlightAware ADS-B
02:27PM 48.2340 -124.2712 315° West 279 321 6,400 900 Climbing FlightAware ADS-B
02:28PM 48.2523 -124.2969 317° Northwest 279 321 6,600 1,380 Climbing FlightAware ADS-B
02:28PM 48.2695 -124.3194 317° Northwest 279 321 7,200 1,920 Climbing FlightAware ADS-B
02:28PM 48.2834 -124.3376 319° Northwest 269 310 7,700 1,560 Climbing FlightAware ADS-B (CYVR)
02:28PM 48.2987 -124.3580 318° Northwest 267 307 8,000 1,320 Climbing FlightAware ADS-B
02:29PM 48.3125 -124.3764 318° Northwest 267 307 8,400 1,320 Climbing FlightAware ADS-B (CYVR)
02:29PM 48.3271 -124.3959 318° Northwest 268 308 8,700 1,140 Climbing FlightAware ADS-B
02:29PM 48.3423 -124.4161 319° Northwest 269 310 9,000 1,080 Climbing FlightAware ADS-B (CYVR)
02:29PM 48.3499 -124.4263 313° West 269 310 9,300 1,020 Climbing FlightAware ADS-B (CYWH)
02:29PM 48.3629 -124.4473 308° West 269 310 9,400 1,080 Climbing FlightAware ADS-B
02:30PM 48.3658 -124.4538 303° West 270 311 9,500 1,200 Climbing FlightAware ADS-B
02:30PM 48.3678 -124.4585 298° West 271 312 9,600 1,080 Climbing FlightAware ADS-B
02:30PM 48.3724 -124.4731 292° West 271 312 9,700 900 Climbing FlightAware ADS-B
02:30PM 48.3748 -124.4836 283° West 272 313 9,800 900 Climbing FlightAware ADS-B (CYVR)
02:30PM 48.3774 -124.5063 273° West 274 315 10,000 1,140 Climbing FlightAware ADS-B
02:30PM 48.3773 -124.5223 264° West 275 316 10,200 1,260 Climbing FlightAware ADS-B
02:30PM 48.3759 -124.5367 262° West 275 316 10,300 960 Climbing FlightAware ADS-B
02:31PM 48.3722 -124.5550 248° West 276 318 10,500 960 Climbing FlightAware ADS-B (CYVR)
02:31PM 48.3609 -124.5840 230° Southwest 278 320 10,800 840 Climbing FlightAware ADS-B (CYVR)
02:31PM 48.3461 -124.6051 214° Southwest 277 319 11,000 900 Climbing FlightAware ADS-B
02:31PM 48.3498 -124.6009 212° Southwest 277 319 11,100 960 Climbing FlightAware ADS-B (CYWH)
02:32PM 48.3156 -124.6243 190° South 278 320 11,400 1,320 Climbing FlightAware ADS-B
02:32PM 48.3089 -124.6255 178° South 283 326 11,800 2,820 Climbing FlightAware ADS-B (CYVR)
02:32PM 48.2871 -124.6225 167° South 282 325 12,400 3,120 Climbing FlightAware ADS-B
02:32PM 48.2761 -124.6170 156° South 283 326 12,800 2,820 Climbing FlightAware ADS-B (CYVR)
02:32PM 48.2688 -124.6115 147° Southeast 286 329 13,300 2,820 Climbing FlightAware ADS-B (CYVR)
02:33PM 48.2322 -124.5728 137° Southeast 292 336 14,700 2,760 Climbing FlightAware ADS-B
02:33PM 48.2236 -124.5564 118° Southeast 286 329 15,200 3,120 Climbing FlightAware ADS-B
02:33PM 48.2194 -124.5412 107° East 279 321 15,800 3,000 Climbing FlightAware ADS-B
02:34PM 48.2097 -124.4860 102° East 235 270 17,200 2,040 Climbing FlightAware ADS-B
02:34PM 48.2075 -124.4700 101° East 237 273 17,200 -180 Level FlightAware ADS-B
02:34PM 48.2021 -124.4155 97° East 228 262 17,100  Descending FlightAware ADS-B (CYWH)
02:35PM 48.2003 -124.3918 97° East 203 234 17,200 120 Climbing FlightAware ADS-B
02:35PM 48.1980 -124.3519 94° East 197 227 17,200  Level FlightAware ADS-B (CYVR)
02:36PM 48.1956 -124.3090 100° East 198 228 17,200  Level FlightAware ADS-B (CYWH)
02:36PM 48.1921 -124.2880 107° East 200 230 17,200  Level FlightAware ADS-B (KPFC)
02:36PM 48.1858 -124.2540 105° East 200 230 17,200 180 Level FlightAware ADS-B
02:36PM 48.1841 -124.2444 104° East 199 229 17,300 360 Climbing FlightAware ADS-B
02:36PM 48.1824 -124.2340 103° East 198 228 17,300  Level FlightAware ADS-B
02:37PM 48.1811 -124.2254 101° East 197 227 17,300  Level FlightAware ADS-B (KPFC)
02:37PM 48.1793 -124.2130 102° East 198 228 17,300 -240 Level FlightAware ADS-B
02:37PM 48.1766 -124.1910 100° East 199 229 17,200 -300 Descending FlightAware ADS-B
02:37PM 48.1760 -124.1866 100° East 199 229 17,200  Level FlightAware ADS-B (CYWH)
02:37PM 48.1738 -124.1680 99° East 199 229 17,200  Level FlightAware ADS-B
02:37PM 48.1727 -124.1561 99° East 200 230 17,200  Level FlightAware ADS-B
02:38PM 48.1712 -124.1390 97° East 201 231 17,200  Level FlightAware ADS-B
02:38PM 48.1694 -124.1154 96° East 201 231 17,200  Level FlightAware ADS-B (CYWH)
02:38PM 48.1687 -124.1060 95° East 201 231 17,200 180 Level FlightAware ADS-B
02:38PM 48.1674 -124.0796 93° East 201 231 17,300 180 Climbing FlightAware ADS-B (CYWH)
02:39PM 48.1668 -124.0640 93° East 200 230 17,300  Level FlightAware ADS-B
02:39PM 48.1664 -124.0484 92° East 199 229 17,300  Level FlightAware ADS-B (CYWH)
02:39PM 48.1660 -124.0250 91° East 200 230 17,300  Level FlightAware ADS-B
02:39PM 48.1661 -124.0046 89° East 200 230 17,300  Level FlightAware ADS-B (KPFC)
02:39PM 48.1664 -123.9890 88° East 200 230 17,300  Level FlightAware ADS-B
02:40PM 48.1668 -123.9670 89° East 201 231 17,300 180 Level FlightAware ADS-B
02:40PM 48.1669 -123.9491 91° East 201 231 17,400 240 Climbing FlightAware ADS-B (CYWH)
02:40PM 48.1666 -123.9320 92° East 200 230 17,400  Level FlightAware ADS-B
02:40PM 48.1657 -123.9082 94° East 201 231 17,400  Level FlightAware ADS-B
02:41PM 48.1648 -123.8900 94° East 201 231 17,400  Level FlightAware ADS-B
02:41PM 48.1640 -123.8723 92° East 200 230 17,400  Level FlightAware ADS-B (KPFC)
02:41PM 48.1629 -123.8480 93° East 199 229 17,400  Level FlightAware ADS-B
02:41PM 48.1634 -123.8604 94° East 199 229 17,400  Level FlightAware ADS-B
02:41PM 48.1619 -123.8210 93° East 200 230 17,400  Level FlightAware ADS-B
02:42PM 48.1610 -123.7952 93° East 201 231 17,400  Level FlightAware ADS-B (CYWH)
02:42PM 48.1606 -123.7790 92° East 201 231 17,400  Level FlightAware ADS-B
02:42PM 48.1601 -123.7558 92° East 199 229 17,400 -240 Level FlightAware ADS-B
02:42PM 48.1598 -123.7370 91° East 202 232 17,300 -420 Descending FlightAware ADS-B
02:43PM 48.1596 -123.7130 91° East 193 222 17,200 -1,080 Descending FlightAware ADS-B
02:43PM 48.1594 -123.6990 91° East 192 221 16,800 -1,800 Descending FlightAware ADS-B
02:43PM 48.1591 -123.6729 91° East 193 222 16,300 -1,140 Descending FlightAware ADS-B
02:43PM 48.1589 -123.6620 91° East 194 223 16,300  Level FlightAware ADS-B
02:44PM 48.1584 -123.6370 92° East 196 226 16,300  Level FlightAware ADS-B
02:44PM 48.1582 -123.6306 93° East 196 226 16,300  Level FlightAware ADS-B (CYVR)
02:44PM 48.1574 -123.6047 90° East 194 223 16,300  Level FlightAware ADS-B (KPFC)
02:44PM 48.1572 -123.5970 92° East 194 223 16,300 240 Level FlightAware ADS-B
02:45PM 48.1565 -123.5740 93° East 193 222 16,400 120 Climbing FlightAware ADS-B
02:45PM 48.1553 -123.5417 94° East 194 223 16,400  Level FlightAware ADS-B (CYWH)
02:45PM 48.1550 -123.5320 94° East 194 223 16,400 -1,080 Level FlightAware ADS-B
02:46PM 48.1532 -123.4933 94° East 194 223 15,800 -1,380 Descending FlightAware ADS-B (CYVR)
02:46PM 48.1511 -123.4520 95° East 177 204 15,000 -1,680 Descending FlightAware ADS-B
02:46PM 48.1509 -123.4490 95° East 173 199 14,900 -1,200 Descending FlightAware ADS-B (CYWH)
02:47PM 48.1488 -123.4180 96° East 147 169 14,400 -1,320 Descending FlightAware ADS-B
02:47PM 48.1488 -123.4176 97° East 143 165 14,200 -3,240 Descending FlightAware ADS-B (CYWH)
02:47PM 48.1468 -123.3810 94° East 179 206 12,700 -3,240 Descending FlightAware ADS-B
02:47PM 48.1469 -123.3833 94° East 177 204 12,600 -1,440 Descending FlightAware ADS-B (CYWH)
02:48PM 48.1453 -123.3510 94° East 159 183 12,100 -1,200 Descending FlightAware ADS-B
02:48PM 48.1450 -123.3432 94° East 152 175 12,000 -1,020 Descending FlightAware ADS-B (CYWH)
02:48PM 48.1438 -123.3210 95° East 130 150 11,600 -2,160 Descending FlightAware ADS-B
02:48PM 48.1431 -123.3115 97° East 151 174 10,800 -3,120 Descending FlightAware ADS-B
02:48PM 48.1418 -123.2960 97° East 163 188 10,300 -840 Descending FlightAware ADS-B
02:49PM 48.1395 -123.2690 96° East 187 215 10,300 420 Level FlightAware ADS-B
02:49PM 48.1393 -123.2630 91° East 184 212 10,500 2,640 Climbing FlightAware ADS-B
02:49PM 48.1396 -123.2590 84° East 179 206 10,700 900 Climbing FlightAware ADS-B (CYVR)
02:49PM 48.1409 -123.2400 82° East 174 200 10,800 360 Climbing FlightAware ADS-B
02:49PM 48.1413 -123.2378 74° East 171 197 10,800  Level FlightAware ADS-B
02:49PM 48.1420 -123.2350 71° East 170 196 10,800  Level FlightAware ADS-B
02:49PM 48.1416 -123.2363 63° Northeast 166 191 10,800 1,980 Level FlightAware ADS-B (CYWH)
02:49PM 48.1433 -123.2320 60° Northeast 166 191 10,900 1,200 Climbing FlightAware ADS-B
02:49PM 48.1446 -123.2291 46° Northeast 161 185 10,900  Level FlightAware ADS-B
02:49PM 48.1474 -123.2254 42° Northeast 161 185 10,900  Level FlightAware ADS-B
02:50PM 48.1625 -123.2060 41° Northeast 162 186 10,900  Level FlightAware ADS-B
02:50PM 48.1644 -123.2037 41° Northeast 165 190 10,900 1,140 Level FlightAware ADS-B (CYWH)
02:50PM 48.1745 -123.1900 41° Northeast 164 189 11,300 1,500 Climbing FlightAware ADS-B
02:50PM 48.1738 -123.1914 41° Northeast 161 185 11,400 1,560 Climbing FlightAware ADS-B
02:51PM 48.1875 -123.1730 43° Northeast 169 194 11,900 1,500 Climbing FlightAware ADS-B
02:51PM 48.1902 -123.1692 44° Northeast 173 199 12,000 1,320 Climbing FlightAware ADS-B
02:51PM 48.2038 -123.1500 43° Northeast 194 223 12,500 1,440 Climbing FlightAware ADS-B
02:51PM 48.2150 -123.1340 43° Northeast 209 241 13,000 1,860 Climbing FlightAware ADS-B (CYVR)
02:51PM 48.2196 -123.1280 43° Northeast 208 239 13,200 2,520 Climbing FlightAware ADS-B
02:52PM 48.2361 -123.1040 43° Northeast 208 239 14,200 2,280 Climbing FlightAware ADS-B
02:52PM 48.2392 -123.0998 44° Northeast 209 241 14,400 1,860 Climbing FlightAware ADS-B (CYWH)
02:52PM 48.2511 -123.0830 45° Northeast 214 246 14,900 2,160 Climbing FlightAware ADS-B
02:52PM 48.2603 -123.0686 47° Northeast 216 249 15,500 2,400 Climbing FlightAware ADS-B (CYWH)
02:53PM 48.2684 -123.0560 46° Northeast 214 246 15,900 2,160 Climbing FlightAware ADS-B
02:53PM 48.2831 -123.0340 44° Northeast 214 246 16,600 2,280 Climbing FlightAware ADS-B
02:53PM 48.2834 -123.0340 44° Northeast 215 247 16,700 1,080 Climbing FlightAware ADS-B (CYWH)
02:53PM 48.2949 -123.0190 40° Northeast 219 252 16,900 720 Climbing FlightAware ADS-B
02:54PM 48.3082 -123.0024 39° Northeast 215 247 17,100 420 Climbing FlightAware ADS-B
02:54PM 48.3144 -122.9950 39° Northeast 214 246 17,100  Level FlightAware ADS-B
02:54PM 48.3212 -122.9863 39° Northeast 211 243 17,100  Level FlightAware ADS-B (CYWH)
02:54PM 48.3356 -122.9690 40° Northeast 197 227 17,100  Level FlightAware ADS-B
02:54PM 48.3417 -122.9610 39° Northeast 191 220 17,100  Level FlightAware ADS-B (CYVR)
02:54PM 48.3492 -122.9520 39° Northeast 189 217 17,100 180 Level FlightAware ADS-B
02:55PM 48.3633 -122.9353 37° Northeast 183 211 17,200 240 Climbing FlightAware ADS-B (CYWH)
02:55PM 48.3650 -122.9330 37° Northeast 183 211 17,200  Level FlightAware ADS-B
02:55PM 48.3815 -122.9150 35° Northeast 182 209 17,200 -240 Level FlightAware ADS-B
02:55PM 48.3843 -122.9124 35° Northeast 183 211 17,100 -1,620 Descending FlightAware ADS-B (CYVR)
02:56PM 48.4022 -122.8930 35° Northeast 180 207 16,400 -1,800 Descending FlightAware ADS-B
02:56PM 48.4065 -122.8888 35° Northeast 177 204 16,200 -1,080 Descending FlightAware ADS-B
02:56PM 48.4200 -122.8740 37° Northeast 150 173 15,900 -780 Descending FlightAware ADS-B
02:56PM 48.4245 -122.8689 37° Northeast 138 159 15,800 -1,740 Descending FlightAware ADS-B (CYVR)
02:57PM 48.4306 -122.8620 38° Northeast 129 148 15,300 -3,600 Descending FlightAware ADS-B
02:57PM 48.4341 -122.8577 37° Northeast 161 185 14,600 -4,500 Descending FlightAware ADS-B (CYVR)
02:57PM 48.4400 -122.8510 39° Northeast 177 204 14,100 -1,800 Descending FlightAware ADS-B
02:57PM 48.4436 -122.8463 40° Northeast 168 193 13,700 -1,080 Descending FlightAware ADS-B (CYCD)
02:57PM 48.4563 -122.8300 41° Northeast 154 177 13,600 -720 Descending FlightAware ADS-B
02:58PM 48.4650 -122.8180 42° Northeast 127 146 13,400 -2,400 Descending FlightAware ADS-B
02:58PM 48.4745 -122.8040 46° Northeast 167 192 12,000 -3,240 Descending FlightAware ADS-B
02:58PM 48.4792 -122.7964 48° Northeast 166 191 11,800 -1,380 Descending FlightAware ADS-B (CYWH)
02:58PM 48.4838 -122.7890 48° Northeast 159 183 11,600 -1,380 Descending FlightAware ADS-B
02:59PM 48.4922 -122.7740 49° Northeast 156 180 11,200 -1,200 Descending FlightAware ADS-B
02:59PM 48.4957 -122.7680 50° Northeast 162 186 11,100 -600 Descending FlightAware ADS-B (CYVR)
02:59PM 48.5023 -122.7560 51° Northeast 166 191 11,000 -240 Descending FlightAware ADS-B
02:59PM 48.5106 -122.7401 52° Northeast 170 196 11,000  Level FlightAware ADS-B (CYVR)
02:59PM 48.5113 -122.7390 51° Northeast 170 196 11,000 180 Level FlightAware ADS-B
03:00PM 48.5269 -122.7090 52° Northeast 204 235 11,100 180 Climbing FlightAware ADS-B
03:00PM 48.5272 -122.7085 52° Northeast 206 237 11,100  Level FlightAware ADS-B (CYVR)
03:00PM 48.5417 -122.6850 40° Northeast 254 292 11,100  Level FlightAware ADS-B (CYVR)
03:00PM 48.5493 -122.6760 38° Northeast 266 306 11,100 1,260 Level FlightAware ADS-B
03:00PM 48.5444 -122.6816 34° Northeast 277 319 11,400 3,480 Climbing FlightAware ADS-B
03:00PM 48.5626 -122.6620 23° Northeast 269 310 11,800 3,420 Climbing FlightAware ADS-B
03:00PM 48.5630 -122.6621 20° North 268 308 11,800 3,240 Level FlightAware ADS-B (CYVR)
03:01PM 48.5728 -122.6606 343° North 272 313 12,400 2,280 Climbing FlightAware ADS-B (CYVR)
03:01PM 48.5841 -122.6704 312° West 294 338 12,600 960 Climbing FlightAware ADS-B
03:01PM 48.5875 -122.6760 347° North 271 312 12,600 2,400 Level FlightAware ADS-B
03:01PM 48.5902 -122.6830 302° West 298 343 12,800 3,000 Climbing FlightAware ADS-B
03:01PM 48.5922 -122.6910 291° West 300 345 13,000 3,600 Climbing FlightAware ADS-B
03:01PM 48.5927 -122.6945 283° West 301 346 13,100 3,000 Climbing FlightAware ADS-B (CYWH)
03:01PM 48.5931 -122.7000 280° West 301 346 13,200 3,600 Climbing FlightAware ADS-B
03:01PM 48.5932 -122.7038 270° West 302 348 13,400 3,960 Climbing FlightAware ADS-B (CYVR)
03:01PM 48.5931 -122.7060 270° West 302 348 13,400 3,600 Level FlightAware ADS-B
03:01PM 48.5923 -122.7142 257° West 303 349 13,700 3,600 Climbing FlightAware ADS-B (CYWH)
03:01PM 48.5920 -122.7160 257° West 303 349 13,700 3,000 Level FlightAware ADS-B
03:01PM 48.5902 -122.7230 248° West 305 351 13,900 3,600 Climbing FlightAware ADS-B
03:01PM 48.5894 -122.7261 244° Southwest 306 352 14,000 3,000 Climbing FlightAware ADS-B (CYVR)
03:01PM 48.5878 -122.7310 240° Southwest 307 353 14,100 3,000 Climbing FlightAware ADS-B
03:01PM 48.5851 -122.7370 235° Southwest 309 356 14,300 3,420 Climbing FlightAware ADS-B
03:01PM 48.5817 -122.7430 229° Southwest 306 352 14,500 3,000 Climbing FlightAware ADS-B
03:01PM 48.5817 -122.7429 229° Southwest 306 352 14,500 4,320 Level FlightAware ADS-B (CYVR)
03:02PM 48.5658 -122.7690 228° Southwest 296 341 15,800 4,080 Climbing FlightAware ADS-B (CYCD)
03:02PM 48.5517 -122.7920 227° Southwest 297 342 16,700 3,660 Climbing FlightAware ADS-B
03:02PM 48.5572 -122.7829 227° Southwest 290 334 16,900 780 Climbing FlightAware ADS-B (CYCD)
03:02PM 48.5225 -122.8380 227° Southwest 304 350 17,100 540 Climbing FlightAware ADS-B
03:02PM 48.5183 -122.8445 227° Southwest 304 350 17,200 180 Climbing FlightAware ADS-B (CYCD)
03:03PM 48.4944 -122.8840 228° Southwest 298 343 17,200 -240 Level FlightAware ADS-B
03:03PM 48.4916 -122.8889 229° Southwest 295 339 17,100 180 Descending FlightAware ADS-B
03:03PM 48.4678 -122.9300 229° Southwest 285 328 17,300 360 Climbing FlightAware ADS-B
03:04PM 48.4637 -122.9369 230° Southwest 284 327 17,300  Level FlightAware ADS-B
03:04PM 48.4419 -122.9760 230° Southwest 283 326 17,300 180 Level FlightAware ADS-B
03:04PM 48.4369 -122.9853 231° Southwest 283 326 17,400 -600 Climbing FlightAware ADS-B
03:04PM 48.4170 -123.0220 231° Southwest 281 323 17,000 -1,200 Descending FlightAware ADS-B
03:05PM 48.4121 -123.0312 231° Southwest 282 325 16,800 -1,440 Descending FlightAware ADS-B
03:05PM 48.4066 -123.0410 230° Southwest 282 325 16,700 -1,140 Descending FlightAware ADS-B
03:05PM 48.4078 -123.0391 226° Southwest 282 325 16,600 -900 Descending FlightAware ADS-B
03:05PM 48.4002 -123.0510 224° Southwest 281 323 16,600 -720 Level FlightAware ADS-B
03:05PM 48.3937 -123.0600 218° Southwest 280 322 16,500 -900 Descending FlightAware ADS-B
03:05PM 48.3943 -123.0589 217° Southwest 280 322 16,500 -240 Level FlightAware ADS-B
03:05PM 48.3635 -123.0930 217° Southwest 250 288 16,400  Descending FlightAware ADS-B
03:05PM 48.3644 -123.0924 217° Southwest 243 280 16,500  Climbing FlightAware ADS-B (CYWH)
03:06PM 48.3463 -123.1130 217° Southwest 216 249 16,400 -2,520 Descending FlightAware ADS-B
03:06PM 48.3344 -123.1270 219° Southwest 240 276 15,300 -5,460 Descending FlightAware ADS-B
03:06PM 48.3293 -123.1331 221° Southwest 270 311 14,500 -5,580 Descending FlightAware ADS-B (CYVR)
03:06PM 48.3230 -123.1420 223° Southwest 282 325 14,100 -600 Descending FlightAware ADS-B
03:07PM 48.3002 -123.1750 225° Southwest 257 296 14,200 180 Climbing FlightAware ADS-B (CYVR)
03:07PM 48.2986 -123.1770 225° Southwest 253 291 14,200 180 Level FlightAware ADS-B
03:07PM 48.2761 -123.2110 225° Southwest 201 231 14,300 -2,520 Climbing FlightAware ADS-B
03:07PM 48.2614 -123.2340 228° Southwest 271 312 12,100 -5,460 Descending FlightAware ADS-B
03:08PM 48.2523 -123.2493 229° Southwest 294 338 11,500 -1,800 Descending FlightAware ADS-B (CYWH)
03:08PM 48.2351 -123.2800 230° Southwest 286 329 11,200 -840 Descending FlightAware ADS-B
03:08PM 48.2271 -123.2938 230° Southwest 281 323 11,100 -240 Descending FlightAware ADS-B (CYWH)
03:08PM 48.2106 -123.3230 230° Southwest 261 300 11,100 180 Level FlightAware ADS-B
03:09PM 48.2033 -123.3366 230° Southwest 245 282 11,200 360 Climbing FlightAware ADS-B (CYWH)
03:09PM 48.1892 -123.3620 230° Southwest 221 254 11,300 360 Climbing FlightAware ADS-B
03:09PM 48.1823 -123.3744 231° Southwest 205 236 11,400 -2,640 Climbing FlightAware ADS-B (CYWH)
03:09PM 48.1711 -123.3946 230° Southwest 227 261 10,000 -5,100 Descending FlightAware ADS-B (CYWH)
03:10PM 48.1644 -123.4073 232° Southwest 300 345 8,200 -2,520 Descending FlightAware ADS-B (CYVR)
03:10PM 48.1489 -123.4371 232° Southwest 290 334 8,600 900 Climbing FlightAware ADS-B
03:10PM 48.1315 -123.4707 233° Southwest 282 325 8,700 300 Climbing FlightAware ADS-B (CYWH)
03:11PM 48.1205 -123.4923 233° Southwest 277 319 8,800 120 Climbing FlightAware ADS-B (CYWH)
03:11PM 48.1060 -123.5210 234° Southwest 265 305 8,800 -240 Level FlightAware ADS-B
03:11PM 48.0921 -123.5496 234° Southwest 266 306 8,700  Descending FlightAware ADS-B (CYVR)
03:11PM 48.0803 -123.5748 241° Southwest 266 306 8,800 660 Climbing FlightAware ADS-B (CYWH)
03:12PM 48.0765 -123.5864 257° West 263 303 9,000 2,160 Climbing FlightAware ADS-B
03:12PM 48.0744 -123.6015 287° West 247 284 9,500 2,100 Climbing FlightAware ADS-B (CYWH)
03:12PM 48.0769 -123.6178 296° West 246 283 9,500  Level FlightAware ADS-B
03:12PM 48.0774 -123.6193 306° West 251 289 9,500 540 Level FlightAware ADS-B (CYWH)
03:12PM 48.0901 -123.6480 300° West 260 299 9,700 780 Climbing FlightAware ADS-B (CYVR)
03:12PM 48.0980 -123.6686 299° West 276 318 9,900 360 Climbing FlightAware ADS-B
03:13PM 48.1116 -123.7049 299° West 292 336 9,900  Level FlightAware ADS-B
03:13PM 48.1195 -123.7259 300° West 291 335 9,900  Level FlightAware ADS-B
03:13PM 48.1333 -123.7621 300° West 289 333 9,900  Level FlightAware ADS-B (CYWH)
03:14PM 48.1437 -123.7891 300° West 286 329 9,900 -780 Level FlightAware ADS-B (CYVR)
03:14PM 48.1544 -123.8171 300° West 276 318 9,500 -960 Descending FlightAware ADS-B
03:14PM 48.1643 -123.8429 300° West 258 297 9,400  Descending FlightAware ADS-B (CYWH)
03:14PM 48.1747 -123.8697 300° West 248 285 9,500 -600 Climbing FlightAware ADS-B
03:15PM 48.1829 -123.8909 300° West 246 283 9,100 -1,200 Descending FlightAware ADS-B
03:15PM 48.1907 -123.9110 300° West 239 275 8,900 -780 Descending FlightAware ADS-B
03:15PM 48.2092 -123.9594 300° West 218 251 8,500 -720 Descending FlightAware ADS-B (CYWH)
03:16PM 48.2176 -123.9817 300° West 210 242 8,300 -1,020 Descending FlightAware ADS-B (CYVR)
03:16PM 48.2266 -124.0047 300° West 208 239 7,900 -1,320 Descending FlightAware ADS-B
03:16PM 48.2336 -124.0227 301° West 209 241 7,600 -1,200 Descending FlightAware ADS-B (CYWH)
03:17PM 48.2392 -124.0368 301° West 209 241 7,300 -1,200 Descending FlightAware ADS-B (CYWH)
03:17PM 48.2485 -124.0604 301° West 207 238 7,000 -1,020 Descending FlightAware ADS-B
03:17PM 48.2557 -124.0787 300° West 200 230 6,800 -840 Descending FlightAware ADS-B (CYVR)
03:17PM 48.2564 -124.0806 300° West 196 226 6,700 -720 Descending FlightAware ADS-B (CYWH)
03:18PM 48.2671 -124.1079 300° West 186 214 6,500 -540 Descending FlightAware ADS-B
03:18PM 48.2735 -124.1240 301° West 181 208 6,400 -420 Descending FlightAware ADS-B
03:18PM 48.2818 -124.1451 301° West 179 206 6,300 -360 Descending FlightAware ADS-B (CYVR)
03:18PM 48.2871 -124.1585 301° West 178 205 6,200 -360 Descending FlightAware ADS-B
03:19PM 48.2950 -124.1785 300° West 174 200 6,100 -540 Descending FlightAware ADS-B (CYVR)
03:19PM 48.3027 -124.1980 301° West 173 199 5,900 -600 Descending FlightAware ADS-B
03:19PM 48.3076 -124.2104 301° West 174 200 5,800 -420 Descending FlightAware ADS-B
03:19PM 48.3147 -124.2280 302° West 175 201 5,700 -420 Descending FlightAware ADS-B
03:20PM 48.3235 -124.2494 301° West 177 204 5,600 -360 Descending FlightAware ADS-B
03:20PM 48.3302 -124.2663 301° West 177 204 5,500 -420 Descending FlightAware ADS-B
03:20PM 48.3356 -124.2798 301° West 179 206 5,400 -420 Descending FlightAware ADS-B
03:21PM 48.3432 -124.2989 301° West 181 208 5,300  Descending FlightAware ADS-B (CYVR)
03:22PM 48.3416 -124.2948 284° West 176 203 5,500 180 Climbing FlightAware ADS-B
03:23PM 48.3684 -124.4509 257° West 168 193 5,800 420 Climbing FlightAware ADS-B
03:23PM 48.3653 -124.4664 249° West 174 200 5,800  Level FlightAware ADS-B
03:23PM 48.3571 -124.4809 200° South 167 192 5,800  Level FlightAware ADS-B
03:23PM 48.3547 -124.4818 189° South 166 191 5,800  Level FlightAware ADS-B
03:23PM 48.3448 -124.4765 142° Southeast 165 190 5,800 -240 Level FlightAware ADS-B
03:27PM 48.2866 -124.2394 102° East 145 167 5,000 -180 Descending FlightAware ADS-B
03:28PM 48.2842 -124.2237 103° East 145 167 5,100 120 Climbing FlightAware ADS-B
03:29PM 48.2419 -124.2095 154° Southeast 146 168 5,200 60 Climbing FlightAware ADS-B
03:30PM 48.2304 -124.1579 107° East 155 178 5,300 120 Climbing FlightAware ADS-B (CYVR)
03:31PM 48.2237 -124.1210 102° East 162 186 5,400  Climbing FlightAware ADS-B
03:31PM 48.2216 -124.1059 102° East 160 184 5,300  Descending FlightAware ADS-B
03:31PM 48.2191 -124.0873 101° East 161 185 5,400 120 Climbing FlightAware ADS-B
03:31PM 48.2159 -124.0616 108° East 162 186 5,400 -240 Level FlightAware ADS-B
03:32PM 48.2132 -124.0554 137° Southeast 164 189 5,300 -780 Descending FlightAware ADS-B
03:32PM 48.2081 -124.0526 185° South 172 198 5,200 -480 Descending FlightAware ADS-B
03:32PM 48.2029 -124.0540 197° South 174 200 5,200  Level FlightAware ADS-B
03:32PM 48.1912 -124.0604 199° South 173 199 5,200 240 Level FlightAware ADS-B
03:32PM 48.1850 -124.0623 176° South 166 191 5,300 360 Climbing FlightAware ADS-B
03:32PM 48.1814 -124.0615 150° Southeast 161 185 5,300 -600 Level FlightAware ADS-B
03:32PM 48.1777 -124.0579 124° Southeast 160 184 5,200 -1,140 Descending FlightAware ADS-B
03:32PM 48.1757 -124.0509 102° East 162 186 5,100 -600 Descending FlightAware ADS-B
03:33PM 48.1756 -124.0489 87° East 165 190 5,100  Level FlightAware ADS-B
03:33PM 48.1766 -124.0283 86° East 168 193 5,100 120 Level FlightAware ADS-B
03:33PM 48.2165 -124.0651 85° East 166 191 5,200 300 Climbing FlightAware ADS-B (CYWH)
03:33PM 48.1790 -123.9837 86° East 161 185 5,300  Climbing FlightAware ADS-B
03:34PM 48.1798 -123.9675 86° East 164 189 5,200 -420 Descending FlightAware ADS-B (CYWH)
03:34PM 48.1807 -123.9481 86° East 169 194 5,100 -720 Descending FlightAware ADS-B
03:34PM 48.1815 -123.9290 87° East 159 183 4,800 -900 Descending FlightAware ADS-B
03:35PM 48.1829 -123.8969 86° East 152 175 4,400 -1,020 Descending FlightAware ADS-B
03:35PM 48.1820 -123.9183 25° Northeast 153 176 3,800 -60 Descending FlightAware ADS-B (CYWH)
03:38PM 48.1995 -123.7624 103° East 147 169 4,300 120 Climbing FlightAware ADS-B (CYWH)
03:38PM 48.1965 -123.7433 105° East 148 170 4,200 -780 Descending FlightAware ADS-B (CYWH)
03:38PM 48.1922 -123.7201 105° East 147 169 3,800 -1,020 Descending FlightAware ADS-B (CYVR)
03:39PM 48.1892 -123.7042 106° East 148 170 3,500 -900 Descending FlightAware ADS-B (CYWH)
03:39PM 48.1881 -123.6983 106° East 145 167 3,300 -780 Descending FlightAware ADS-B
03:39PM 48.1845 -123.6789 103° East 147 169 3,100 -960 Descending FlightAware ADS-B (CYWH)
03:39PM 48.1840 -123.6619 66° East 147 169 2,900 -1,500 Descending FlightAware ADS-B (CYWH)
03:39PM 48.1897 -123.6572 North 159 183 2,600 -1,380 Descending FlightAware ADS-B (CYWH)
03:39PM 48.1920 -123.6575 342° North 162 186 2,500 -600 Descending FlightAware ADS-B (CYWH)
03:40PM 48.2104 -123.6661 343° North 155 178 2,300 -960 Descending FlightAware ADS-B (CYWH)
03:40PM 48.2253 -123.6463 88° East 148 170 1,600 -1,080 Descending FlightAware ADS-B (CYWH)
03:41PM 48.2246 -123.6250 105° East 148 170 1,300 -180 Descending FlightAware ADS-B (CYWH)
03:41PM 48.2167 -123.5934 112° Southeast 208 239 1,500 1,080 Climbing FlightAware ADS-B (CYWH)
03:42PM 48.2085 -123.5637 113° Southeast 225 259 2,200 1,980 Climbing FlightAware ADS-B (CYWH)
03:42PM 48.2005 -123.5349 112° Southeast 256 295 2,900 3,120 Climbing FlightAware ADS-B (CYWH)
03:42PM 48.1920 -123.5042 113° Southeast 252 290 4,100 4,320 Climbing FlightAware ADS-B (CYVR)
03:42PM 48.1866 -123.4839 109° East 254 292 5,000 3,840 Climbing FlightAware ADS-B (CYWH)
03:43PM 48.1813 -123.4529 100° East 261 300 6,100 3,480 Climbing FlightAware ADS-B (CYVR)
03:43PM 48.1788 -123.4240 97° East 267 307 7,000 3,660 Climbing FlightAware ADS-B (CYWH)
03:43PM 48.1764 -123.3963 100° East 270 311 8,000 3,840 Climbing FlightAware ADS-B
03:43PM 48.1737 -123.3780 102° East 272 313 8,600 3,360 Climbing FlightAware ADS-B
03:44PM 48.1695 -123.3432 100° East 278 320 9,700 3,360 Climbing FlightAware ADS-B (CYVR)
03:44PM 48.1627 -123.2860 101° East 288 331 11,300 3,300 Climbing FlightAware ADS-B
03:44PM 48.1625 -123.2839 101° East 293 337 11,600 1,500 Climbing FlightAware ADS-B (CYWH)
03:45PM 48.1548 -123.2230 101° East 327 376 12,100 1,320 Climbing FlightAware ADS-B
03:45PM 48.1525 -123.2053 101° East 337 388 12,300 1,980 Climbing FlightAware ADS-B
03:45PM 48.1457 -123.1530 101° East 356 410 13,100 2,160 Climbing FlightAware ADS-B
03:45PM 48.1417 -123.1225 101° East 365 420 13,600 2,400 Climbing FlightAware ADS-B
03:46PM 48.1358 -123.0770 101° East 376 433 14,300 1,920 Climbing FlightAware ADS-B
03:46PM 48.1317 -123.0465 102° East 380 437 14,600 540 Climbing FlightAware ADS-B
03:46PM 48.1251 -122.9980 102° East 400 460 14,600  Level FlightAware ADS-B
03:46PM 48.1246 -122.9946 101° East 403 464 14,600  Level FlightAware ADS-B
03:47PM 48.1133 -122.9120 102° East 426 490 14,600  Level FlightAware ADS-B
03:47PM 48.1135 -122.9135 102° East 427 491 14,600  Level FlightAware ADS-B
03:47PM 48.1014 -122.8250 102° East 428 493 14,600  Level FlightAware ADS-B
03:47PM 48.1005 -122.8188 102° East 427 491 14,600 180 Level FlightAware ADS-B
03:48PM 48.0877 -122.7400 105° East 410 472 14,700 360 Climbing FlightAware ADS-B
03:48PM 48.0852 -122.7265 105° East 410 472 14,800 540 Climbing FlightAware ADS-B (CYWH)
03:48PM 48.0720 -122.6560 105° East 418 481 15,000 300 Climbing FlightAware ADS-B
03:49PM 48.0561 -122.5700 105° East 431 496 15,100 60 Climbing FlightAware ADS-B
03:49PM 48.0399 -122.4840 106° East 428 493 15,100  Level FlightAware ADS-B
03:49PM 48.0404 -122.4862 106° East 428 493 15,100  Level FlightAware ADS-B
03:50PM 48.0325 -122.4450 107° East 428 493 15,100  Level FlightAware ADS-B
03:50PM 48.0265 -122.4210 113° Southeast 431 496 15,100  Level FlightAware ADS-B
03:50PM 48.0404 -122.4862 115° Southeast 431 496 15,100  Level FlightAware ADS-B
03:50PM 48.0222 -122.4090 119° Southeast 432 497 15,100  Level FlightAware ADS-B
03:50PM 48.0032 -122.3688 128° Southeast 435 501 15,100  Level FlightAware ADS-B (CYWH)
03:50PM 47.9852 -122.3350 129° Southeast 434 499 15,100  Level FlightAware ADS-B
03:51PM 47.9718 -122.3105 129° Southeast 433 498 15,100  Level FlightAware ADS-B
03:51PM 47.9468 -122.2640 129° Southeast 434 499 15,100  Level FlightAware ADS-B
03:51PM 47.9360 -122.2439 129° Southeast 433 498 15,100  Level FlightAware ADS-B (CYVR)
03:51PM 47.9087 -122.1930 129° Southeast 433 498 15,100  Level FlightAware ADS-B
03:52PM 47.8932 -122.1641 128° Southeast 435 501 15,100  Level FlightAware ADS-B
03:52PM 47.8710 -122.1220 128° Southeast 435 501 15,100  Level FlightAware ADS-B
03:52PM 47.8638 -122.1088 128° Southeast 435 501 15,100  Level FlightAware ADS-B
03:52PM 47.8499 -122.0820 127° Southeast 434 499 15,100  Level FlightAware ADS-B
03:52PM 47.8394 -122.0590 122° Southeast 433 498 15,100  Level FlightAware ADS-B
03:52PM 47.8320 -122.0400 117° Southeast 432 497 15,100  Level FlightAware ADS-B
03:53PM 47.8247 -122.0150 112° Southeast 431 496 15,100  Level FlightAware ADS-B
03:53PM 47.8203 -121.9970 108° East 430 495 15,100  Level FlightAware ADS-B
03:53PM 47.8163 -121.9760 104° East 429 494 15,100  Level FlightAware ADS-B
03:53PM 47.8135 -121.9551 101° East 430 495 15,100  Level FlightAware ADS-B
03:53PM 47.8042 -121.8900 102° East 431 496 15,100  Level FlightAware ADS-B
03:53PM 47.8011 -121.8684 102° East 430 495 15,100  Level FlightAware ADS-B (CYVR)
03:54PM 47.7915 -121.8030 103° East 426 490 15,100  Level FlightAware ADS-B
03:54PM 47.7888 -121.7849 103° East 424 488 15,100  Level FlightAware ADS-B (CYVR)
03:54PM 47.7787 -121.7170 102° East 426 490 15,100  Level FlightAware ADS-B
03:54PM 47.7753 -121.6931 102° East 425 489 15,100  Level FlightAware ADS-B (CYWH)
03:55PM 47.7666 -121.6310 102° East 426 490 15,100  Level FlightAware ADS-B
03:55PM 47.7633 -121.6079 102° East 426 490 15,100  Level FlightAware ADS-B
03:55PM 47.7538 -121.5440 103° East 426 490 15,100  Level FlightAware ADS-B
03:56PM 47.7432 -121.4739 103° East 426 490 15,100  Level FlightAware ADS-B
03:56PM 47.7408 -121.4570 103° East 425 489 15,100 180 Level FlightAware ADS-B
03:56PM 47.7399 -121.4517 102° East 425 489 15,200 180 Climbing FlightAware ADS-B
03:56PM 47.7281 -121.3700 102° East 427 491 15,200  Level FlightAware ADS-B
03:57PM 47.7174 -121.2955 102° East 426 490 15,200  Level FlightAware ADS-B (CYWH)
03:57PM 47.7158 -121.2850 103° East 428 493 15,200  Level FlightAware ADS-B
03:57PM 47.7014 -121.1930 103° East 428 493 15,200 -120 Level FlightAware ADS-B
03:58PM 47.6867 -121.1020 103° East 427 491 15,100  Descending FlightAware ADS-B
03:58PM 47.6734 -121.0170 103° East 425 489 15,200 180 Climbing FlightAware ADS-B
03:58PM 47.6723 -121.0093 103° East 425 489 15,200  Level FlightAware ADS-B
03:59PM 47.6598 -120.9280 103° East 424 488 15,200  Level FlightAware ADS-B
03:59PM 47.6469 -120.8430 103° East 424 488 15,200 -120 Level FlightAware ADS-B
04:00PM 47.6336 -120.7560 103° East 424 488 15,100 -420 Descending FlightAware ADS-B
04:00PM 47.6203 -120.6710 103° East 414 476 14,800 -900 Descending FlightAware ADS-B
04:01PM 47.6073 -120.5890 103° East 401 461 14,200 -1,980 Descending FlightAware ADS-B
04:01PM 47.5943 -120.5060 103° East 399 459 12,800 -2,220 Descending FlightAware ADS-B
04:02PM 47.5636 -120.3486 103° East 395 455 10,700 -1,920 Descending Seattle Center
04:03PM 47.5550 -120.2100 95° East 331 381 8,900 -840 Descending Seattle Center
04:05PM 47.5350 -120.1000 105° East 283 326 9,000  Climbing Seattle Center
04:06PM 47.5133 -119.9822 105° East 278 320 9,000 -240 Level Seattle Center
04:07PM 47.4958 -119.8719 103° East 278 320 8,600 -660 Descending Seattle Center
04:08PM 47.4772 -119.7667 105° East 269 310 7,700 -900 Descending Seattle Center